Time;durP1;ratioP1;P1;durP2;ratioP2;P2;SDS_P1;SDS_P2;PMS_P1;PMS_P2;Temp;Humidity;BMP_temperature;BMP_pressure;BME280_temperature;BME280_humidity;BME280_pressure;Samples;Min_cycle;Max_cycle;Signal;HPM_P1;HPM_P2
2021/04/11 00:00:24;;;;;;;19.80;6.85;;;;;;;9.22;39.80;99244.63;114231;1206;103098;-70
2021/04/11 00:03:18;;;;;;;16.77;5.40;;;;;;;9.21;40.25;99241.11;114032;1206;103095;-71
2021/04/11 00:05:46;;;;;;;15.90;5.50;;;;;;;9.23;39.99;99244.52;114286;1206;103165;-71
2021/04/11 00:08:14;;;;;;;18.10;5.40;;;;;;;9.22;40.08;99241.98;115797;1206;102222;-71
2021/04/11 00:10:45;;;;;;;14.40;5.20;;;;;;;9.22;40.26;99244.63;115826;1205;101094;-71
2021/04/11 00:13:33;;;;;;;16.85;6.00;;;;;;;9.21;40.38;99243.77;115805;1205;100853;-70
2021/04/11 00:16:01;;;;;;;13.90;4.70;;;;;;;9.19;40.57;99237.70;115849;1206;101091;-70
2021/04/11 00:18:28;;;;;;;18.45;6.35;;;;;;;9.13;40.70;99246.08;115018;1205;103210;-71
2021/04/11 00:20:56;;;;;;;17.20;6.00;;;;;;;9.06;40.38;99242.11;114232;1206;103090;-71
2021/04/11 00:23:25;;;;;;;18.80;6.00;;;;;;;9.02;40.70;99244.09;114500;1206;103079;-71
2021/04/11 00:25:53;;;;;;;17.70;6.20;;;;;;;9.01;40.90;99241.55;114498;1205;103210;-72
2021/04/11 00:28:22;;;;;;;18.87;5.57;;;;;;;9.02;40.50;99238.78;114492;1206;103068;-71
2021/04/11 00:30:49;;;;;;;17.95;5.20;;;;;;;9.01;40.86;99245.03;114503;1206;103201;-71
2021/04/11 00:33:31;;;;;;;15.80;4.77;;;;;;;9.03;40.57;99237.83;114436;1206;103149;-71
2021/04/11 00:36:13;;;;;;;14.70;5.20;;;;;;;9.05;40.92;99237.75;114495;1206;103178;-71
2021/04/11 00:38:41;;;;;;;17.70;5.40;;;;;;;9.09;40.95;99236.61;114477;1206;103159;-70
2021/04/11 00:41:16;;;;;;;14.30;4.70;;;;;;;9.13;41.10;99240.77;114455;1206;103172;-72
2021/04/11 00:43:45;;;;;;;12.00;4.40;;;;;;;9.18;41.11;99235.16;114318;1205;103083;-70
2021/04/11 00:46:19;;;;;;;16.85;5.30;;;;;;;9.24;40.97;99232.11;114489;1206;103072;-71
2021/04/11 00:48:49;;;;;;;14.50;4.40;;;;;;;9.27;41.24;99231.92;114366;1206;103181;-72
2021/04/11 00:51:24;;;;;;;15.40;5.10;;;;;;;9.31;41.07;99228.12;114676;1206;103076;-71
2021/04/11 00:53:57;;;;;;;16.40;5.30;;;;;;;9.35;41.08;99240.24;114531;1206;103091;-71
2021/04/11 00:56:24;;;;;;;14.10;4.80;;;;;;;9.36;41.36;99233.11;114411;1205;103051;-70
2021/04/11 00:58:52;;;;;;;14.70;5.00;;;;;;;9.35;41.28;99232.28;114393;1206;103095;-70
2021/04/11 01:01:20;;;;;;;15.70;5.00;;;;;;;9.35;41.37;99228.75;115828;1205;101155;-69
2021/04/11 01:03:49;;;;;;;13.30;4.50;;;;;;;9.34;41.59;99222.61;115809;1205;101156;-70
2021/04/11 01:06:21;;;;;;;16.25;5.10;;;;;;;9.35;41.27;99234.94;114937;1206;103297;-70
2021/04/11 01:08:51;;;;;;;14.40;5.90;;;;;;;9.37;41.37;99225.03;115813;1206;102118;-71
2021/04/11 01:11:22;;;;;;;13.80;4.40;;;;;;;9.40;41.58;99226.66;115819;1205;100856;-70
2021/04/11 01:14:15;;;;;;;14.55;4.35;;;;;;;9.44;41.69;99225.50;115876;1205;100810;-71
2021/04/11 01:16:43;;;;;;;13.25;4.40;;;;;;;9.45;41.46;99226.34;114480;1207;103075;-72
2021/04/11 01:19:24;;;;;;;12.35;3.70;;;;;;;9.45;41.46;99226.34;114555;1206;103060;-71
2021/04/11 01:22:31;;;;;;;13.90;4.30;;;;;;;9.44;41.40;99221.98;114520;1206;103088;-71
2021/04/11 01:25:08;;;;;;;14.70;5.60;;;;;;;9.44;41.78;99220.20;114485;1205;103162;-72
2021/04/11 01:27:36;;;;;;;12.40;4.50;;;;;;;9.43;41.55;99218.49;114474;1206;103274;-71
2021/04/11 01:30:35;;;;;;;14.35;4.70;;;;;;;9.41;41.59;99220.39;114469;1206;103145;-72
2021/04/11 01:33:06;;;;;;;11.70;4.60;;;;;;;9.39;41.72;99214.33;114194;1206;103622;-71
2021/04/11 01:35:33;;;;;;;11.95;5.25;;;;;;;9.36;41.73;99219.84;114365;1206;103203;-72
2021/04/11 01:38:02;;;;;;;15.40;4.75;;;;;;;9.33;42.02;99214.73;114502;1206;103178;-73
2021/04/11 01:40:50;;;;;;;14.35;4.90;;;;;;;9.30;41.71;99214.92;114253;1206;103078;-71
2021/04/11 01:43:17;;;;;;;14.20;4.50;;;;;;;9.24;41.92;99209.06;114366;1206;103143;-71
2021/04/11 01:45:45;;;;;;;19.80;7.20;;;;;;;9.22;41.83;99212.78;114526;1206;103169;-71
2021/04/11 01:48:13;;;;;;;19.10;6.20;;;;;;;9.19;42.17;99215.63;114566;1206;103201;-71
2021/04/11 01:50:41;;;;;;;13.40;5.60;;;;;;;9.16;42.25;99215.83;114378;1206;103116;-70
2021/04/11 01:53:10;;;;;;;11.40;5.30;;;;;;;9.14;42.04;99215.07;114511;1205;103127;-70
2021/04/11 01:55:39;;;;;;;14.80;5.00;;;;;;;9.11;42.24;99213.48;114485;1206;103580;-70
2021/04/11 01:58:07;;;;;;;12.15;4.50;;;;;;;9.09;42.31;99210.91;114514;1206;103086;-71
2021/04/11 02:00:40;;;;;;;13.00;5.00;;;;;;;9.07;41.82;99210.16;114279;1206;103418;-70
2021/04/11 02:03:15;;;;;;;17.90;5.45;;;;;;;9.04;42.16;99213.00;114319;1206;103210;-70
2021/04/11 02:05:44;;;;;;;14.25;4.70;;;;;;;8.98;42.27;99210.73;114401;1206;103056;-70
2021/04/11 02:08:15;;;;;;;13.05;4.90;;;;;;;8.90;42.06;99208.58;114515;1206;103086;-71
2021/04/11 02:10:47;;;;;;;13.80;4.60;;;;;;;8.83;42.45;99209.92;114470;1206;103094;-71
2021/04/11 02:13:16;;;;;;;10.73;4.60;;;;;;;8.72;42.55;99209.77;114351;1206;102466;-71
2021/04/11 02:15:46;;;;;;;13.50;4.25;;;;;;;8.57;42.23;99211.55;114457;1206;103207;-71
2021/04/11 02:18:16;;;;;;;13.40;4.80;;;;;;;8.45;42.85;99210.48;114511;1206;103056;-71
2021/04/11 02:20:43;;;;;;;14.90;4.87;;;;;;;8.35;43.01;99208.39;114359;1206;103634;-72
2021/04/11 02:23:15;;;;;;;14.30;5.20;;;;;;;8.29;42.79;99207.92;114542;1205;103050;-72
2021/04/11 02:25:48;;;;;;;15.63;4.90;;;;;;;8.23;43.02;99209.16;114382;1206;103283;-70
2021/04/11 02:28:17;;;;;;;13.05;5.10;;;;;;;8.18;43.47;99221.84;114295;1206;103172;-71
2021/04/11 02:30:52;;;;;;;16.10;5.75;;;;;;;8.12;43.26;99216.90;114392;1206;103062;-71
2021/04/11 02:33:20;;;;;;;14.60;5.80;;;;;;;8.09;43.07;99220.60;114441;1206;103101;-71
2021/04/11 02:35:47;;;;;;;14.40;5.10;;;;;;;8.11;43.42;99220.49;114469;1206;103083;-71
2021/04/11 02:38:16;;;;;;;15.50;5.20;;;;;;;8.12;43.17;99208.95;114529;1206;103217;-71
2021/04/11 02:40:45;;;;;;;15.80;5.60;;;;;;;8.13;43.21;99215.95;114365;1206;103638;-71
2021/04/11 02:43:14;;;;;;;13.85;4.85;;;;;;;8.14;43.13;99210.58;114520;1205;103548;-70
2021/04/11 02:45:44;;;;;;;14.73;5.17;;;;;;;8.15;43.25;99216.72;114429;1206;103280;-72
2021/04/11 02:48:13;;;;;;;13.55;4.80;;;;;;;8.13;43.33;99214.17;114310;1205;103136;-70
2021/04/11 02:50:42;;;;;;;13.40;5.10;;;;;;;8.11;43.52;99217.84;114314;1206;103059;-71
2021/04/11 02:53:15;;;;;;;15.20;5.00;;;;;;;8.07;43.31;99219.84;114197;1205;103056;-71
2021/04/11 02:55:43;;;;;;;13.45;4.40;;;;;;;8.01;43.26;99213.09;114315;1206;103050;-71
2021/04/11 02:58:13;;;;;;;15.00;5.00;;;;;;;7.99;43.37;99216.79;114404;1205;103149;-70
2021/04/11 03:00:49;;;;;;;16.40;5.00;;;;;;;7.94;43.65;99213.56;114358;1206;103184;-69
2021/04/11 03:03:18;;;;;;;13.40;4.60;;;;;;;7.90;43.43;99220.84;114422;1206;103217;-70
2021/04/11 03:05:45;;;;;;;12.70;4.45;;;;;;;7.85;43.45;99217.61;115282;1206;103162;-71
2021/04/11 03:08:19;;;;;;;18.10;4.90;;;;;;;7.80;43.78;99225.81;114446;1206;103079;-69
2021/04/11 03:10:52;;;;;;;13.35;5.05;;;;;;;7.79;43.65;99217.97;114351;1206;103078;-70
2021/04/11 03:13:20;;;;;;;;;;;;;;;7.72;43.91;99225.44;114318;1213;102092;-71
2021/04/11 03:15:49;;;;;;;13.60;4.40;;;;;;;7.64;44.35;99231.16;114484;1206;103165;-70
2021/04/11 03:18:18;;;;;;;14.25;4.70;;;;;;;7.61;44.09;99233.97;114890;1206;103481;-70
2021/04/11 03:20:46;;;;;;;20.50;7.00;;;;;;;7.56;44.20;99233.39;114550;1206;103165;-71
2021/04/11 03:23:13;;;;;;;14.65;4.95;;;;;;;7.58;44.54;99239.45;114518;1206;103127;-71
2021/04/11 03:25:41;;;;;;;12.75;5.05;;;;;;;7.58;44.34;99240.31;114513;1206;103200;-71
2021/04/11 03:28:27;;;;;;;13.30;4.50;;;;;;;7.60;44.33;99235.78;114532;1206;103079;-71
2021/04/11 03:31:04;;;;;;;12.77;4.50;;;;;;;7.60;44.53;99229.63;114382;1205;103635;-71
2021/04/11 03:33:44;;;;;;;15.80;5.70;;;;;;;7.61;44.36;99236.63;114366;1206;103076;-72
2021/04/11 03:36:15;;;;;;;12.60;4.50;;;;;;;7.64;44.56;99246.20;114422;1205;103922;-71
2021/04/11 03:38:43;;;;;;;18.50;5.45;;;;;;;7.66;44.48;99253.09;114338;1206;103105;-72
2021/04/11 03:41:12;;;;;;;16.40;5.05;;;;;;;7.69;44.86;99257.38;114907;1206;101629;-71
2021/04/11 03:43:53;;;;;;;20.00;5.40;;;;;;;7.71;44.67;99258.98;114488;1206;103644;-72
2021/04/11 03:46:39;;;;;;;15.45;5.00;;;;;;;7.74;44.84;99256.16;114476;1206;103172;-73
2021/04/11 03:49:14;;;;;;;10.90;4.20;;;;;;;7.78;44.48;99258.63;114336;1206;103191;-71
2021/04/11 03:51:43;;;;;;;13.25;4.55;;;;;;;7.80;44.76;99262.88;114368;1206;103066;-72
2021/04/11 03:54:22;;;;;;;12.50;5.20;;;;;;;7.82;44.62;99268.11;114498;1206;103118;-69
2021/04/11 03:57:15;;;;;;;20.20;7.50;;;;;;;7.83;44.97;99275.95;114312;1206;103545;-70
2021/04/11 03:59:47;;;;;;;13.65;5.65;;;;;;;7.89;44.87;99274.77;114416;1206;103099;-70
2021/04/11 04:02:17;;;;;;;17.40;6.40;;;;;;;7.93;44.76;99278.94;114511;1206;103149;-70
2021/04/11 04:04:46;;;;;;;14.90;5.20;;;;;;;7.94;44.81;99285.95;114562;1206;103103;-70
2021/04/11 04:07:16;;;;;;;12.60;5.25;;;;;;;7.93;44.91;99286.88;114525;1206;103092;-70
2021/04/11 04:09:51;;;;;;;13.85;5.20;;;;;;;7.94;44.90;99280.65;114488;1206;103044;-69
2021/04/11 04:13:05;;;;;;;12.30;5.20;;;;;;;7.98;45.02;99281.30;114513;1206;103149;-71
2021/04/11 04:15:43;;;;;;;11.80;4.90;;;;;;;8.01;44.81;99289.08;114262;1206;103092;-71
2021/04/11 04:18:32;;;;;;;12.05;4.80;;;;;;;8.03;44.79;99284.55;114551;1205;103050;-71
2021/04/11 04:21:15;;;;;;;12.50;4.30;;;;;;;8.02;44.71;99285.48;114510;1206;103193;-70
2021/04/11 04:24:04;;;;;;;10.35;4.05;;;;;;;7.99;45.13;99288.31;114510;1206;103081;-69
2021/04/11 04:26:56;;;;;;;9.15;4.10;;;;;;;7.95;44.69;99287.62;114548;1206;103085;-69
2021/04/11 04:29:33;;;;;;;10.05;4.20;;;;;;;7.95;45.24;99289.43;114516;1206;103127;-69
2021/04/11 04:32:24;;;;;;;10.90;4.90;;;;;;;7.93;45.00;99286.02;114525;1206;103096;-69
2021/04/11 04:35:09;;;;;;;12.10;4.05;;;;;;;7.93;45.20;99280.72;114538;1206;103216;-70
2021/04/11 04:38:13;;;;;;;14.70;4.50;;;;;;;7.98;45.33;99278.66;114481;1206;103075;-69
2021/04/11 04:40:58;;;;;;;14.47;4.20;;;;;;;8.01;45.59;99279.31;114513;1205;103252;-70
2021/04/11 04:43:43;;;;;;;13.97;4.50;;;;;;;8.07;45.94;99277.25;114501;1206;103065;-71
2021/04/11 04:46:45;;;;;;;13.70;4.15;;;;;;;8.12;45.59;99283.14;114517;1206;103092;-69
2021/04/11 04:49:50;;;;;;;10.00;3.90;;;;;;;8.17;45.63;99281.91;114411;1206;103168;-69
2021/04/11 04:52:24;;;;;;;12.80;5.10;;;;;;;8.22;45.63;99283.44;114504;1206;103172;-70
2021/04/11 04:55:05;;;;;;;11.25;4.45;;;;;;;8.26;45.49;99282.31;114518;1206;103079;-71
2021/04/11 04:57:39;;;;;;;12.07;4.40;;;;;;;8.30;45.65;99274.11;114455;1206;103079;-68
2021/04/11 05:00:19;;;;;;;;;;;;;;;8.35;45.74;99276.47;114518;1213;103201;-68
2021/04/11 05:03:12;;;;;;;13.85;4.75;;;;;;;8.40;45.41;99273.52;114539;1206;103303;-67
2021/04/11 05:05:52;;;;;;;13.33;4.80;;;;;;;8.46;45.56;99278.46;114513;1205;103194;-70
2021/04/11 05:08:26;;;;;;;14.80;5.20;;;;;;;8.52;45.44;99278.13;114540;1206;103098;-69
2021/04/11 05:11:05;;;;;;;14.38;4.65;;;;;;;8.58;45.47;99275.11;114528;1206;103207;-70
2021/04/11 05:13:38;;;;;;;16.45;6.15;;;;;;;8.64;45.76;99277.38;114489;1206;103268;-69
2021/04/11 05:16:31;;;;;;;16.33;5.50;;;;;;;8.69;45.58;99277.09;114504;1206;103165;-72
2021/04/11 05:19:06;;;;;;;15.70;5.93;;;;;;;8.74;45.86;99275.01;114454;1206;103656;-71
2021/04/11 05:21:38;;;;;;;20.30;6.65;;;;;;;8.78;45.53;99273.00;114457;1206;103117;-70
2021/04/11 05:24:14;;;;;;;23.30;7.50;;;;;;;8.82;45.88;99266.56;115523;1206;101996;-72
2021/04/11 05:27:04;;;;;;;16.95;6.15;;;;;;;8.88;45.72;99274.14;114545;1206;103132;-75
2021/04/11 05:29:58;;;;;;;16.80;5.95;;;;;;;8.96;45.85;99278.99;114435;1206;103277;-70
2021/04/11 05:32:25;;;;;;;13.45;4.90;;;;;;;9.06;45.93;99273.95;114362;1206;103130;-72
2021/04/11 05:34:55;;;;;;;14.70;5.00;;;;;;;9.13;45.80;99277.92;114391;1206;103130;-72
2021/04/11 05:37:31;;;;;;;14.90;5.30;;;;;;;9.22;45.70;99277.31;114343;1206;103229;-73
2021/04/11 05:40:01;;;;;;;16.60;5.70;;;;;;;9.32;45.74;99276.73;114382;1206;103079;-71
2021/04/11 05:42:55;;;;;;;11.65;4.15;;;;;;;9.39;45.84;99270.09;114442;1206;103197;-71
2021/04/11 05:45:25;;;;;;;16.45;5.10;;;;;;;9.44;45.96;99267.98;114305;1206;103152;-72
2021/04/11 05:48:13;;;;;;;14.45;4.65;;;;;;;9.50;46.14;99275.56;114362;1205;103159;-72
2021/04/11 05:51:03;;;;;;;12.30;4.70;;;;;;;9.56;45.95;99281.42;114453;1206;103098;-72
2021/04/11 05:53:44;;;;;;;9.50;4.40;;;;;;;9.60;46.07;99275.80;114431;1206;103296;-70
2021/04/11 05:56:18;;;;;;;12.20;4.40;;;;;;;9.65;46.07;99278.14;114465;1205;103146;-73
2021/04/11 05:58:57;;;;;;;14.80;4.60;;;;;;;9.70;45.99;99275.20;114418;1206;103082;-73
2021/04/11 06:01:42;;;;;;;13.00;4.60;;;;;;;9.80;45.96;99278.94;114407;1205;103076;-73
2021/04/11 06:04:42;;;;;;;16.40;5.00;;;;;;;9.84;46.13;99264.50;114238;1205;103129;-72
2021/04/11 06:07:19;;;;;;;10.10;3.87;;;;;;;9.92;46.22;99270.16;114394;1205;103158;-71
2021/04/11 06:10:16;;;;;;;13.05;4.85;;;;;;;10.00;46.29;99271.45;114477;1206;103213;-70
2021/04/11 06:12:58;;;;;;;13.67;4.90;;;;;;;10.09;46.37;99262.87;114412;1206;103165;-71
2021/04/11 06:15:33;;;;;;;13.10;4.80;;;;;;;10.19;46.19;99263.92;114494;1206;103255;-71
2021/04/11 06:18:05;;;;;;;14.00;4.80;;;;;;;10.32;46.24;99257.78;114362;1205;103078;-71
2021/04/11 06:20:37;;;;;;;12.37;4.83;;;;;;;10.45;46.28;99263.13;114471;1205;103204;-74
2021/04/11 06:23:16;;;;;;;12.70;5.20;;;;;;;10.60;46.23;99266.55;114409;1206;103172;-73
2021/04/11 06:26:06;;;;;;;15.20;4.70;;;;;;;10.75;46.34;99254.81;114395;1206;103069;-71
2021/04/11 06:28:52;;;;;;;12.45;4.10;;;;;;;10.89;46.11;99260.98;114447;1205;103102;-72
2021/04/11 06:31:26;;;;;;;11.30;4.15;;;;;;;11.02;46.22;99256.47;114406;1206;103076;-72
2021/04/11 06:34:30;;;;;;;12.90;4.53;;;;;;;11.13;46.11;99256.55;114429;1206;103139;-71
2021/04/11 06:37:06;;;;;;;13.60;4.55;;;;;;;11.29;46.17;99258.11;113967;1206;103108;-70
2021/04/11 06:39:38;;;;;;;13.45;4.45;;;;;;;11.42;46.07;99260.73;114448;1206;103088;-73
2021/04/11 06:42:37;;;;;;;15.05;4.45;;;;;;;11.55;45.86;99272.19;114436;1206;103085;-72
2021/04/11 06:45:25;;;;;;;8.60;3.60;;;;;;;11.69;45.91;99263.17;114433;1206;103156;-72
2021/04/11 06:48:18;;;;;;;9.50;3.80;;;;;;;11.82;45.65;99260.44;114471;1206;103152;-71
2021/04/11 06:51:06;;;;;;;10.20;3.95;;;;;;;11.96;45.70;99269.22;114427;1206;103185;-71
2021/04/11 06:53:39;;;;;;;9.65;3.80;;;;;;;12.11;45.55;99264.58;114426;1204;103092;-70
2021/04/11 06:56:20;;;;;;;9.85;3.95;;;;;;;12.28;45.81;99268.61;114492;1206;103046;-73
2021/04/11 06:59:14;;;;;;;9.60;3.30;;;;;;;12.48;45.62;99273.25;114470;1206;103082;-71
2021/04/11 07:02:18;;;;;;;11.20;3.90;;;;;;;12.65;45.23;99276.43;114482;1206;103121;-73
2021/04/11 07:05:04;;;;;;;9.53;3.63;;;;;;;12.78;44.73;99282.52;114463;1206;103141;-73
2021/04/11 07:08:12;;;;;;;11.65;3.75;;;;;;;12.88;44.34;99281.77;114445;1206;103053;-74
2021/04/11 07:11:13;;;;;;;10.20;4.20;;;;;;;13.00;44.71;99280.80;114528;1205;103680;-70
2021/04/11 07:14:18;;;;;;;10.70;3.75;;;;;;;13.14;44.47;99282.37;114418;1206;103485;-72
2021/04/11 07:17:18;;;;;;;8.90;3.50;;;;;;;13.26;44.22;99277.85;114436;1206;103095;-71
2021/04/11 07:20:06;;;;;;;8.70;3.30;;;;;;;13.42;44.46;99279.33;114455;1206;103152;-70
2021/04/11 07:22:33;;;;;;;9.60;3.85;;;;;;;13.58;44.46;99285.13;114377;1206;103076;-71
2021/04/11 07:25:37;;;;;;;12.80;4.35;;;;;;;13.69;43.83;99290.42;114457;1206;103081;-71
2021/04/11 07:28:24;;;;;;;9.00;3.60;;;;;;;13.97;44.00;99281.94;114484;1206;103152;-72
2021/04/11 07:30:54;;;;;;;10.20;4.00;;;;;;;15.73;42.80;99278.40;114470;1206;103079;-71
2021/04/11 07:33:38;;;;;;;8.30;3.40;;;;;;;17.52;42.12;99263.39;114467;1206;103542;-70
2021/04/11 07:36:25;;;;;;;11.97;4.00;;;;;;;19.03;41.98;99275.19;114499;1206;103168;-69
2021/04/11 07:39:33;;;;;;;10.80;4.13;;;;;;;20.41;41.92;99273.94;114472;1206;103162;-72
2021/04/11 07:42:22;;;;;;;9.75;3.40;;;;;;;21.83;41.47;99267.00;114416;1206;103117;-71
2021/04/11 07:45:11;;;;;;;10.75;3.40;;;;;;;22.84;41.51;99269.52;114491;1206;103143;-71
2021/04/11 07:47:56;;;;;;;8.15;3.90;;;;;;;23.75;42.24;99271.09;114443;1205;103114;-72
2021/04/11 07:50:59;;;;;;;7.85;3.30;;;;;;;24.52;40.10;99268.64;114429;1206;103098;-73
2021/04/11 07:53:48;;;;;;;11.35;4.35;;;;;;;24.56;40.75;99269.11;114471;1206;103076;-71
2021/04/11 07:56:22;;;;;;;7.00;3.40;;;;;;;24.83;39.05;99274.74;114458;1206;103523;-70
2021/04/11 07:58:52;;;;;;;9.50;3.60;;;;;;;25.05;37.99;99271.95;114466;1206;103204;-70
2021/04/11 08:01:38;;;;;;;18.07;6.00;;;;;;;25.18;38.32;99271.17;114459;1206;103152;-71
2021/04/11 08:04:14;;;;;;;22.15;8.20;;;;;;;25.34;36.38;99259.09;114443;1206;103111;-71
2021/04/11 08:07:03;;;;;;;11.70;4.30;;;;;;;25.40;36.78;99277.34;114481;1206;103698;-71
2021/04/11 08:10:01;;;;;;;12.40;4.20;;;;;;;25.81;37.62;99272.86;114447;1206;103535;-72
2021/04/11 08:12:44;;;;;;;8.25;3.60;;;;;;;26.14;35.65;99272.95;114443;1206;103086;-75
2021/04/11 08:15:29;;;;;;;;;;;;;;;26.00;32.01;99261.17;114466;1213;103219;-74
2021/04/11 08:18:17;;;;;;;9.55;3.40;;;;;;;25.31;32.37;99271.21;114427;1206;103268;-73
2021/04/11 08:21:03;;;;;;;12.55;3.50;;;;;;;25.25;32.53;99277.49;114459;1206;103082;-72
2021/04/11 08:24:04;;;;;;;7.80;3.20;;;;;;;25.41;33.12;99277.13;114458;1206;103137;-72
2021/04/11 08:26:53;;;;;;;7.50;3.40;;;;;;;25.37;31.98;99281.29;114489;1206;103111;-74
2021/04/11 08:29:41;;;;;;;10.25;3.60;;;;;;;25.44;31.77;99275.92;114447;1206;103050;-71
2021/04/11 08:32:40;;;;;;;9.67;3.33;;;;;;;25.26;30.05;99271.83;114366;1205;103203;-71
2021/04/11 08:35:22;;;;;;;13.50;4.00;;;;;;;25.07;30.03;99297.05;114482;1206;103149;-71
2021/04/11 08:38:20;;;;;;;11.60;3.80;;;;;;;25.05;30.14;99277.39;114480;1206;103092;-71
2021/04/11 08:41:21;;;;;;;10.60;3.40;;;;;;;24.64;28.34;99277.13;114439;1206;103070;-74
2021/04/11 08:44:06;;;;;;;8.20;3.45;;;;;;;24.39;28.79;99268.56;114475;1206;103053;-77
2021/04/11 08:46:46;;;;;;;10.40;3.60;;;;;;;24.58;28.09;99275.19;114470;1206;103078;-74
2021/04/11 08:49:47;;;;;;;7.20;3.50;;;;;;;24.54;29.26;99263.02;114494;1206;103179;-71
2021/04/11 08:52:44;;;;;;;9.50;3.60;;;;;;;24.57;28.25;99268.07;114136;1206;103086;-70
2021/04/11 08:55:33;;;;;;;7.80;3.60;;;;;;;24.04;26.72;99273.91;114470;1206;103542;-71
2021/04/11 08:58:09;;;;;;;7.13;3.03;;;;;;;23.72;25.40;99254.31;114485;1206;103072;-71
2021/04/11 09:00:48;;;;;;;10.87;3.60;;;;;;;23.51;26.65;99255.98;114424;1206;103150;-71
2021/04/11 09:03:23;;;;;;;9.60;3.80;;;;;;;23.82;27.09;99259.45;114477;1206;103049;-72
2021/04/11 09:06:21;;;;;;;8.40;3.40;;;;;;;23.99;26.43;99260.89;114468;1206;103159;-73
2021/04/11 09:09:21;;;;;;;8.90;3.70;;;;;;;24.18;26.39;99243.09;114503;1206;103092;-73
2021/04/11 09:12:13;;;;;;;8.90;3.30;;;;;;;24.03;24.72;99245.06;114468;1205;103047;-72
2021/04/11 09:15:14;;;;;;;6.80;3.00;;;;;;;23.56;24.98;99255.41;114464;1206;103204;-72
2021/04/11 09:18:22;;;;;;;11.00;3.40;;;;;;;23.51;25.85;99258.70;114513;1205;103059;-75
2021/04/11 09:21:12;;;;;;;9.40;3.20;;;;;;;23.73;24.39;99248.72;114387;1206;103284;-75
2021/04/11 09:24:00;;;;;;;10.63;3.40;;;;;;;23.61;25.54;99244.81;114175;1206;103102;-75
2021/04/11 09:26:39;;;;;;;9.40;3.80;;;;;;;23.64;25.29;99242.54;114465;1206;103114;-74
2021/04/11 09:29:22;;;;;;;12.50;3.90;;;;;;;23.72;25.67;99229.88;114465;1206;103663;-71
2021/04/11 09:31:49;;;;;;;;;;;;;;;23.73;26.04;99228.84;114501;1214;103082;-71
2021/04/11 09:34:36;;;;;;;10.10;3.13;;;;;;;23.88;26.28;99229.63;114473;1205;103127;-72
2021/04/11 09:37:51;;;;;;;9.30;3.50;;;;;;;24.36;25.53;99220.85;114499;1205;103092;-75
2021/04/11 09:40:37;;;;;;;11.05;3.80;;;;;;;24.08;24.28;99212.69;114333;1206;103220;-72
2021/04/11 09:43:16;;;;;;;8.85;3.50;;;;;;;23.77;25.27;99222.00;114422;1206;103046;-75
2021/04/11 09:45:57;;;;;;;12.60;3.45;;;;;;;23.83;24.98;99232.09;114456;1206;103052;-72
2021/04/11 09:48:48;;;;;;;9.83;3.37;;;;;;;23.33;24.11;99216.53;114398;1206;103241;-71
2021/04/11 09:51:45;;;;;;;9.40;3.40;;;;;;;22.96;24.42;99229.20;114502;1206;103075;-73
2021/04/11 09:54:17;;;;;;;12.35;3.45;;;;;;;22.44;23.94;99212.00;114481;1206;103152;-73
2021/04/11 09:57:10;;;;;;;8.10;2.90;;;;;;;21.82;23.82;99222.85;114471;1206;103129;-73
2021/04/11 09:59:59;;;;;;;22.33;11.37;;;;;;;21.31;24.41;99222.47;114465;1206;103092;-71
2021/04/11 10:02:36;;;;;;;9.75;3.20;;;;;;;21.18;24.58;99223.05;114474;1205;103056;-71
2021/04/11 10:05:29;;;;;;;11.55;3.40;;;;;;;21.12;24.76;99227.32;114471;1206;103044;-71
2021/04/11 10:08:12;;;;;;;7.70;3.27;;;;;;;21.18;25.15;99228.47;114465;1206;103504;-74
2021/04/11 10:11:09;;;;;;;11.40;4.40;;;;;;;21.09;25.12;99228.50;114424;1206;103504;-75
2021/04/11 10:14:04;;;;;;;8.50;2.90;;;;;;;21.16;24.62;99230.50;114490;1206;103088;-75
2021/04/11 10:16:45;;;;;;;10.00;3.60;;;;;;;20.74;24.11;99225.23;114446;1205;103079;-75
2021/04/11 10:19:28;;;;;;;6.60;2.65;;;;;;;20.26;24.97;99230.58;114500;1206;103529;-74
2021/04/11 10:22:10;;;;;;;8.17;3.07;;;;;;;20.10;24.33;99239.53;114436;1206;103082;-73
2021/04/11 10:24:45;;;;;;;8.00;3.40;;;;;;;19.78;24.60;99235.76;114367;1205;103210;-74
2021/04/11 10:27:23;;;;;;;9.50;3.40;;;;;;;19.57;24.54;99223.61;114456;1206;103156;-72
2021/04/11 10:29:52;;;;;;;9.67;3.50;;;;;;;19.54;25.02;99218.54;114372;1205;103155;-73
2021/04/11 10:32:40;;;;;;;11.00;3.60;;;;;;;19.52;25.10;99217.86;114438;1206;103050;-74
2021/04/11 10:35:39;;;;;;;11.55;3.50;;;;;;;19.37;24.97;99212.28;114353;1206;103047;-70
2021/04/11 10:38:12;;;;;;;12.50;3.60;;;;;;;19.25;25.56;99200.10;114317;1209;103120;-72
2021/04/11 10:41:04;;;;;;;7.85;3.40;;;;;;;19.29;25.41;99220.34;114375;1206;103052;-75
2021/04/11 10:43:45;;;;;;;8.10;3.30;;;;;;;19.11;25.06;99207.84;114150;1206;103040;-73
2021/04/11 10:46:21;;;;;;;9.43;3.50;;;;;;;19.05;24.98;99205.79;114240;1207;103216;-70
2021/04/11 10:49:16;;;;;;;6.83;3.10;;;;;;;19.18;25.45;99206.14;114280;1205;103105;-71
2021/04/11 10:51:43;;;;;;;9.27;3.40;;;;;;;19.27;25.67;99195.39;114176;1206;103121;-71
2021/04/11 10:54:45;;;;;;;9.30;3.45;;;;;;;19.26;25.72;99208.05;114200;1206;103072;-72
2021/04/11 10:57:43;;;;;;;12.25;3.85;;;;;;;19.34;25.60;99193.72;114259;1206;103154;-68
2021/04/11 11:00:37;;;;;;;9.60;3.10;;;;;;;19.43;25.60;99210.76;114379;1206;103050;-70
2021/04/11 11:03:24;;;;;;;10.70;3.90;;;;;;;19.31;26.06;99197.61;114462;1206;103223;-70
2021/04/11 11:06:18;;;;;;;8.80;3.15;;;;;;;19.48;26.45;99203.88;114439;1206;103053;-69
2021/04/11 11:08:54;;;;;;;11.47;3.63;;;;;;;19.69;25.77;99194.44;114444;1205;103053;-71
2021/04/11 11:12:00;;;;;;;7.93;3.27;;;;;;;19.81;26.08;99189.55;114423;1206;103178;-70
2021/04/11 11:14:29;;;;;;;11.30;2.90;;;;;;;19.93;25.55;99212.53;113854;1209;103276;-75
2021/04/11 11:16:56;;;;;;;8.23;3.13;;;;;;;19.71;25.69;99205.91;114358;1206;103668;-74
2021/04/11 11:19:49;;;;;;;8.95;3.60;;;;;;;19.60;25.46;99208.92;114373;1206;103551;-71
2021/04/11 11:22:22;;;;;;;9.75;3.75;;;;;;;19.36;25.33;99194.41;114449;1205;103593;-72
2021/04/11 11:25:00;;;;;;;7.80;3.40;;;;;;;19.15;26.25;99186.77;114438;1206;103124;-71
2021/04/11 11:27:35;;;;;;;8.25;2.90;;;;;;;19.23;26.50;99188.63;114478;1206;103501;-71
2021/04/11 11:30:14;;;;;;;7.00;3.00;;;;;;;19.42;26.63;99179.40;114480;1206;103142;-71
2021/04/11 11:33:03;;;;;;;7.80;2.95;;;;;;;19.53;26.15;99173.69;114435;1206;103725;-70
2021/04/11 11:35:31;;;;;;;9.30;3.00;;;;;;;19.72;26.24;99172.52;114482;1205;103076;-71
2021/04/11 11:38:33;;;;;;;7.70;3.10;;;;;;;19.87;26.09;99166.45;114433;1206;103155;-72
2021/04/11 11:41:10;;;;;;;7.50;3.30;;;;;;;19.90;25.94;99172.38;113910;1209;103242;-70
2021/04/11 11:44:20;;;;;;;4.85;2.75;;;;;;;19.85;25.84;99163.91;114335;1205;103076;-69
2021/04/11 11:47:06;;;;;;;7.20;2.67;;;;;;;19.69;26.42;99163.93;114359;1205;103156;-70
2021/04/11 11:49:47;;;;;;;7.80;3.00;;;;;;;19.71;25.97;99162.73;114426;1206;103088;-72
2021/04/11 11:52:29;;;;;;;13.37;3.37;;;;;;;19.53;25.79;99165.59;114476;1206;103530;-71
2021/04/11 11:55:12;;;;;;;10.70;3.00;;;;;;;19.27;25.82;99163.89;114419;1206;103152;-71
2021/04/11 11:58:03;;;;;;;10.65;3.50;;;;;;;19.28;26.04;99149.40;114464;1206;103121;-71
2021/04/11 12:00:35;;;;;;;7.90;3.20;;;;;;;19.28;25.95;99168.27;114473;1206;103143;-72
2021/04/11 12:03:29;;;;;;;10.00;3.70;;;;;;;19.28;26.50;99151.23;114505;1206;103079;-71
2021/04/11 12:06:04;;;;;;;6.80;3.00;;;;;;;19.37;25.92;99155.64;114443;1206;103265;-72
2021/04/11 12:08:56;;;;;;;8.05;3.15;;;;;;;19.30;25.88;99171.65;114513;1206;103165;-71
2021/04/11 12:11:55;;;;;;;10.95;3.15;;;;;;;19.27;26.10;99163.89;114502;1206;103082;-69
2021/04/11 12:14:35;;;;;;;6.83;3.00;;;;;;;19.12;26.08;99165.53;114336;1206;103200;-70
2021/04/11 12:17:11;;;;;;;11.65;3.40;;;;;;;19.06;26.46;99160.80;114499;1206;103133;-70
2021/04/11 12:19:55;;;;;;;8.10;3.00;;;;;;;18.98;26.20;99165.14;114501;1206;103050;-71